Tekakwitha, South Dakota
Current Conditions -  °F | °C
As of 9:16 PM on Tuesday 25 Nov 2014 (Local Time) from KETH Reporting Station
Overcast Overcast  
Wind Chill: 11°   Ceiling: 7500
Heat Index: 21°   Visibility: 10mi
Dew Point: 18°   Wind: 9mph
Humidity: 86%   Direction: 110°ESE
Pressure: 29.92"   Gusts: NA
Location:  45.7041°N, 96.9842°W
Report Text: KETH 260316Z AUTO 11008KT 10SM OVC075 M06/M08 A2992 RMK AO2
Loading
Personal Weather Stations






























Interactive Weather Map New forecast layout! Learn more

10-Day Weather Forecast

Advertisements
Track Severe Weather on mobile